Time;durP1;ratioP1;P1;durP2;ratioP2;P2;SDS_P1;SDS_P2;PMS_P1;PMS_P2;Temp;Humidity;BMP_temperature;BMP_pressure;BME280_temperature;BME280_humidity;BME280_pressure;Samples;Min_cycle;Max_cycle;Signal;HPM_P1;HPM_P2
2023/06/13 00:02:02;;;;;;;7.25;4.07;;;;;;;22.76;49.64;101011.84;7362884;19;20837;-63
2023/06/13 00:04:30;;;;;;;8.27;4.50;;;;;;;22.81;50.43;101000.44;7363098;19;20015;-61
2023/06/13 00:06:57;;;;;;;8.20;5.43;;;;;;;22.77;50.65;101013.50;7364709;19;20891;-62
2023/06/13 00:09:25;;;;;;;8.20;5.60;;;;;;;22.73;51.95;101006.13;7364209;19;21683;-61
2023/06/13 00:11:53;;;;;;;9.02;5.82;;;;;;;22.68;52.02;101003.28;7363080;19;20053;-62
2023/06/13 00:14:23;;;;;;;10.18;5.40;;;;;;;22.61;52.49;101006.88;7366398;19;20049;-62
2023/06/13 00:16:50;;;;;;;7.60;5.57;;;;;;;22.55;53.34;101001.63;7362690;19;20664;-62
2023/06/13 00:19:18;;;;;;;12.75;5.57;;;;;;;22.52;53.25;101000.19;7362942;19;20017;-61
2023/06/13 00:21:46;;;;;;;9.10;5.47;;;;;;;22.51;53.30;101005.78;7365508;19;20611;-63
2023/06/13 00:24:14;;;;;;;9.93;5.85;;;;;;;22.48;52.74;101001.69;7363431;19;20130;-62
2023/06/13 00:26:41;;;;;;;8.32;5.32;;;;;;;22.47;53.01;101009.97;7364905;19;20159;-61
2023/06/13 00:29:08;;;;;;;8.00;5.00;;;;;;;22.39;53.58;101003.06;7363437;19;20106;-62
2023/06/13 00:31:35;;;;;;;11.30;5.50;;;;;;;22.28;53.90;101006.50;7361740;19;20134;-63
2023/06/13 00:34:02;;;;;;;16.55;6.15;;;;;;;22.08;53.63;101003.25;7361885;19;21159;-61
2023/06/13 00:36:32;;;;;;;7.88;5.35;;;;;;;21.97;54.24;101004.81;7364261;19;20014;-62
2023/06/13 00:38:59;;;;;;;9.68;5.15;;;;;;;21.94;54.04;101007.13;7359866;19;20089;-62
2023/06/13 00:41:26;;;;;;;9.20;5.80;;;;;;;21.89;53.99;101010.41;7361268;19;20017;-62
2023/06/13 00:43:53;;;;;;;7.70;5.15;;;;;;;21.84;53.86;101002.22;7361898;19;20022;-61
2023/06/13 00:46:29;;;;;;;8.95;4.63;;;;;;;21.82;54.29;101011.53;7361978;19;20539;-62
2023/06/13 00:48:59;;;;;;;10.63;4.80;;;;;;;21.80;53.60;101005.56;7358273;19;20062;-64
2023/06/13 00:51:28;;;;;;;8.55;5.28;;;;;;;21.76;54.22;101002.53;7361952;19;20067;-62
2023/06/13 00:53:58;;;;;;;8.52;4.95;;;;;;;21.72;53.96;101002.16;7362538;19;20707;-61
2023/06/13 00:56:29;;;;;;;6.72;4.72;;;;;;;21.67;52.64;100995.81;7360288;19;20042;-61
2023/06/13 00:58:59;;;;;;;9.23;4.93;;;;;;;21.68;52.18;101000.16;7359755;19;20475;-62
2023/06/13 01:01:30;;;;;;;6.45;4.43;;;;;;;21.65;51.91;100995.22;7363660;19;20010;-62
2023/06/13 01:03:59;;;;;;;8.27;4.45;;;;;;;21.65;51.39;100990.66;7358084;19;20022;-62
2023/06/13 01:06:30;;;;;;;8.00;4.45;;;;;;;21.67;50.99;100987.78;7363121;19;20010;-61
2023/06/13 01:09:00;;;;;;;7.07;4.13;;;;;;;21.68;51.57;100978.72;7362892;19;20876;-61
2023/06/13 01:11:33;;;;;;;7.22;4.30;;;;;;;21.68;50.65;100982.22;7364294;19;20014;-62
2023/06/13 01:14:30;;;;;;;6.78;3.75;;;;;;;21.66;51.06;100981.59;7365034;19;20101;-62
2023/06/13 01:17:14;;;;;;;5.38;3.58;;;;;;;21.64;50.34;100972.94;7352899;19;20014;-61
2023/06/13 01:19:47;;;;;;;8.32;3.80;;;;;;;21.62;49.50;100975.06;7360626;19;20085;-62
2023/06/13 01:22:19;;;;;;;6.95;3.70;;;;;;;21.58;49.37;100968.50;7363169;19;20086;-62
2023/06/13 01:25:12;;;;;;;5.85;3.30;;;;;;;21.56;49.68;100975.94;7362065;19;20085;-61
2023/06/13 01:27:45;;;;;;;6.65;3.65;;;;;;;21.51;49.42;100972.28;7359238;19;20377;-61
2023/06/13 01:30:12;;;;;;;7.32;3.42;;;;;;;21.49;49.28;100979.69;7362349;19;20845;-62
2023/06/13 01:32:40;;;;;;;6.57;3.60;;;;;;;21.51;49.37;100977.63;7357902;19;20025;-61
2023/06/13 01:35:08;;;;;;;4.65;3.55;;;;;;;21.48;49.63;100970.06;7360229;19;20013;-61
2023/06/13 01:37:35;;;;;;;6.30;3.13;;;;;;;21.47;49.60;100971.09;7359868;19;20106;-62
2023/06/13 01:40:04;;;;;;;6.20;3.30;;;;;;;21.39;48.99;100964.13;7362840;19;21575;-62
2023/06/13 01:42:30;;;;;;;6.40;2.90;;;;;;;21.33;49.86;100960.47;7355469;19;20082;-62
2023/06/13 01:44:58;;;;;;;5.70;3.42;;;;;;;21.29;49.69;100963.81;7361599;19;20042;-61
2023/06/13 01:47:54;;;;;;;7.13;3.00;;;;;;;21.24;49.58;100966.34;7358080;19;20113;-63
2023/06/13 01:50:36;;;;;;;7.65;3.30;;;;;;;21.18;49.45;100962.69;7360690;19;20033;-61
2023/06/13 01:53:21;;;;;;;7.18;3.17;;;;;;;21.17;49.53;100961.06;7357438;19;20010;-62
2023/06/13 01:56:03;;;;;;;4.55;3.00;;;;;;;21.20;49.57;100963.28;7361547;19;20015;-62
2023/06/13 01:58:48;;;;;;;5.57;2.95;;;;;;;21.15;49.80;100951.59;7362133;19;20423;-61
2023/06/13 02:01:18;;;;;;;5.50;3.20;;;;;;;21.11;50.27;100953.03;7357940;19;20556;-61
2023/06/13 02:03:45;;;;;;;7.65;3.35;;;;;;;21.05;50.60;100952.06;7351627;19;20021;-65
2023/06/13 02:06:12;;;;;;;5.22;3.00;;;;;;;21.01;50.95;100944.69;7360109;19;20099;-61
2023/06/13 02:08:40;;;;;;;6.65;2.85;;;;;;;20.97;50.63;100943.50;7361385;19;20014;-62
2023/06/13 02:11:07;;;;;;;6.30;3.20;;;;;;;20.95;50.66;100943.69;7363095;19;20019;-61
2023/06/13 02:13:34;;;;;;;7.38;3.40;;;;;;;20.93;51.33;100941.22;7368439;19;20029;-63
2023/06/13 02:16:01;;;;;;;5.70;2.83;;;;;;;20.89;51.23;100937.38;7364623;19;20026;-61
2023/06/13 02:18:30;;;;;;;7.93;2.72;;;;;;;20.86;51.73;100943.16;7367898;19;20014;-61
2023/06/13 02:20:57;;;;;;;4.55;3.00;;;;;;;20.84;51.15;100931.84;7367488;19;20017;-61
2023/06/13 02:23:24;;;;;;;5.22;3.15;;;;;;;20.79;51.53;100926.31;7369526;19;21246;-62
2023/06/13 02:25:52;;;;;;;6.35;3.20;;;;;;;20.76;51.79;100924.09;7365931;19;20021;-61
2023/06/13 02:28:19;;;;;;;5.07;3.30;;;;;;;20.77;51.52;100922.25;7368675;19;20010;-62
2023/06/13 02:30:46;;;;;;;6.65;3.10;;;;;;;20.72;51.74;100925.56;7362361;19;20034;-61
2023/06/13 02:33:14;;;;;;;5.88;3.15;;;;;;;20.65;52.00;100921.28;7364798;19;21034;-62
2023/06/13 02:35:42;;;;;;;5.88;3.03;;;;;;;20.63;51.92;100918.00;7366363;19;20026;-62
2023/06/13 02:38:09;;;;;;;6.97;3.10;;;;;;;20.59;51.94;100916.81;7368234;19;20078;-62
2023/06/13 02:40:37;;;;;;;4.85;2.83;;;;;;;20.53;52.65;100912.31;7367710;19;20463;-61
2023/06/13 02:43:05;;;;;;;5.80;3.05;;;;;;;20.47;52.08;100912.13;7370633;19;20077;-63
2023/06/13 02:45:32;;;;;;;5.85;2.78;;;;;;;20.44;52.69;100917.94;7369129;19;20605;-62
2023/06/13 02:47:59;;;;;;;9.27;3.25;;;;;;;20.49;52.45;100909.25;7365241;19;20018;-63
2023/06/13 02:50:27;;;;;;;11.95;3.45;;;;;;;20.44;52.77;100912.59;7365824;19;20082;-61
2023/06/13 02:52:53;;;;;;;5.25;3.10;;;;;;;20.41;52.24;100918.38;7363972;19;20021;-61
2023/06/13 02:55:20;;;;;;;6.10;3.17;;;;;;;20.42;52.32;100911.97;7367163;19;20802;-61
2023/06/13 02:57:48;;;;;;;5.82;2.97;;;;;;;20.41;52.46;100912.19;7368144;19;20036;-61
2023/06/13 03:00:16;;;;;;;5.35;2.95;;;;;;;20.38;52.63;100918.78;7364678;19;20921;-63
2023/06/13 03:02:44;;;;;;;4.82;2.47;;;;;;;20.33;52.30;100909.75;7364338;19;20018;-61
2023/06/13 03:05:16;;;;;;;6.00;2.63;;;;;;;20.33;52.61;100915.94;7362437;19;20019;-61
2023/06/13 03:07:46;;;;;;;5.07;2.70;;;;;;;20.34;52.32;100919.44;7363843;19;20034;-61
2023/06/13 03:10:15;;;;;;;5.40;3.00;;;;;;;20.30;52.38;100913.66;7363860;19;20022;-61
2023/06/13 03:12:43;;;;;;;4.88;3.30;;;;;;;20.28;52.07;100918.41;7364895;19;20053;-61
2023/06/13 03:15:11;;;;;;;5.55;2.53;;;;;;;20.21;52.17;100906.13;7366379;19;20015;-61
2023/06/13 03:17:39;;;;;;;4.75;2.60;;;;;;;20.13;52.51;100915.19;7364257;19;20047;-61
2023/06/13 03:20:08;;;;;;;4.28;2.85;;;;;;;20.07;52.53;100908.84;7365594;19;20014;-61
2023/06/13 03:22:35;;;;;;;5.72;2.60;;;;;;;20.00;53.54;100917.94;7364220;19;20133;-62
2023/06/13 03:25:05;;;;;;;6.13;3.17;;;;;;;19.95;53.24;100913.22;7366360;19;20761;-62
2023/06/13 03:27:32;;;;;;;6.18;3.28;;;;;;;19.95;53.03;100909.75;7365267;19;20019;-61
2023/06/13 03:30:00;;;;;;;5.57;2.95;;;;;;;19.91;53.45;100913.88;7364218;19;20041;-61
2023/06/13 03:32:27;;;;;;;5.28;3.13;;;;;;;19.86;53.50;100914.47;7361332;19;20106;-62
2023/06/13 03:34:54;;;;;;;5.32;3.17;;;;;;;19.86;53.44;100911.81;7364813;19;21888;-62
2023/06/13 03:37:21;;;;;;;5.10;3.05;;;;;;;19.85;53.72;100914.72;7360402;19;20018;-62
2023/06/13 03:39:48;;;;;;;5.35;3.25;;;;;;;19.81;53.68;100908.94;7365480;19;20018;-62
2023/06/13 03:42:16;;;;;;;5.28;3.13;;;;;;;19.77;53.47;100902.41;7365944;19;20014;-62
2023/06/13 03:44:46;;;;;;;5.82;3.03;;;;;;;19.71;54.18;100905.13;7366515;19;20379;-61
2023/06/13 03:47:15;;;;;;;6.15;3.30;;;;;;;19.67;54.46;100906.53;7362594;19;20392;-61
2023/06/13 03:49:43;;;;;;;6.53;3.90;;;;;;;19.61;54.56;100902.84;7363843;19;20010;-61
2023/06/13 03:52:11;;;;;;;5.43;3.65;;;;;;;19.59;55.03;100903.09;7364979;19;20740;-62
2023/06/13 03:54:38;;;;;;;7.07;3.42;;;;;;;19.55;54.94;100903.72;7366423;19;20019;-61
2023/06/13 03:57:06;;;;;;;9.70;3.80;;;;;;;19.54;54.98;100913.56;7363770;19;20027;-61
2023/06/13 03:59:34;;;;;;;6.47;3.47;;;;;;;19.56;55.32;100913.34;7363236;19;20712;-61
2023/06/13 04:02:02;;;;;;;7.53;3.42;;;;;;;19.54;55.74;100910.91;7363664;19;20025;-62
2023/06/13 04:04:29;;;;;;;8.32;4.20;;;;;;;19.52;56.65;100907.63;7362782;19;20110;-61
2023/06/13 04:06:56;;;;;;;7.57;4.13;;;;;;;19.54;56.39;100907.41;7362380;19;20021;-62
2023/06/13 04:09:23;;;;;;;7.75;3.90;;;;;;;19.48;56.94;100911.72;7365273;19;20010;-62
2023/06/13 04:11:50;;;;;;;6.57;4.35;;;;;;;19.47;57.25;100910.09;7360004;19;20029;-63
2023/06/13 04:14:17;;;;;;;8.60;4.63;;;;;;;19.43;57.61;100908.00;7363171;19;20134;-61
2023/06/13 04:16:44;;;;;;;8.48;5.13;;;;;;;19.37;58.43;100911.50;7363071;19;20021;-62
2023/06/13 04:19:17;;;;;;;9.40;5.28;;;;;;;19.30;59.80;100916.06;7362192;19;20022;-63
2023/06/13 04:21:47;;;;;;;8.55;4.88;;;;;;;19.19;59.62;100914.84;7364189;19;20021;-62
2023/06/13 04:24:14;;;;;;;11.43;5.30;;;;;;;19.15;59.90;100914.41;7363916;19;20010;-63
2023/06/13 04:26:45;;;;;;;9.68;5.70;;;;;;;19.10;60.10;100908.03;7363256;19;20089;-62
2023/06/13 04:29:25;;;;;;;8.73;5.43;;;;;;;19.06;60.42;100915.66;7363474;19;20070;-62
2023/06/13 04:32:23;;;;;;;9.88;5.55;;;;;;;18.91;61.02;100909.69;7359266;19;20013;-62
2023/06/13 04:35:15;;;;;;;11.27;5.72;;;;;;;18.92;61.13;100906.03;7360097;19;20542;-63
2023/06/13 04:37:46;;;;;;;10.02;5.57;;;;;;;18.89;61.54;100910.94;7362855;19;20018;-62
2023/06/13 04:40:13;;;;;;;11.55;5.85;;;;;;;18.82;61.96;100910.94;7362065;19;20023;-62
2023/06/13 04:42:47;;;;;;;11.45;5.30;;;;;;;18.80;62.02;100897.81;7364102;19;20109;-61
2023/06/13 04:45:15;;;;;;;10.18;5.60;;;;;;;18.82;62.10;100913.59;7361285;19;20018;-62
2023/06/13 04:47:45;;;;;;;10.35;5.95;;;;;;;18.74;62.65;100913.81;7360525;19;20014;-63
2023/06/13 04:50:25;;;;;;;9.20;5.88;;;;;;;18.75;63.45;100910.94;7360389;19;20029;-64
2023/06/13 04:52:53;;;;;;;10.93;5.57;;;;;;;18.79;62.94;100909.50;7361328;19;20038;-62
2023/06/13 04:55:22;;;;;;;12.85;5.65;;;;;;;18.82;62.64;100918.94;7363982;19;20480;-61
2023/06/13 04:57:50;;;;;;;12.52;6.72;;;;;;;18.85;62.75;100918.53;7363872;19;20218;-62
2023/06/13 05:00:18;;;;;;;11.45;6.22;;;;;;;18.89;62.71;100916.28;7362414;19;20478;-61
2023/06/13 05:02:46;;;;;;;10.90;6.10;;;;;;;18.90;62.78;100916.06;7360815;19;20093;-60
2023/06/13 05:05:16;;;;;;;8.30;5.55;;;;;;;18.91;62.92;100916.88;7357796;19;20022;-61
2023/06/13 05:07:44;;;;;;;14.50;5.53;;;;;;;18.94;63.19;100919.16;7364194;19;20023;-61
2023/06/13 05:10:12;;;;;;;11.55;5.30;;;;;;;18.98;62.73;100915.06;7359648;19;20371;-61
2023/06/13 05:12:44;;;;;;;11.70;5.70;;;;;;;19.04;63.23;100916.91;7362504;19;20121;-61
2023/06/13 05:15:11;;;;;;;13.75;6.18;;;;;;;19.05;63.24;100915.84;7360642;19;20014;-62
2023/06/13 05:17:38;;;;;;;10.75;6.07;;;;;;;19.03;63.97;100913.41;7360014;19;20018;-62
2023/06/13 05:20:06;;;;;;;9.98;5.93;;;;;;;19.07;64.59;100911.97;7362413;19;20021;-62
2023/06/13 05:22:33;;;;;;;13.27;6.25;;;;;;;19.12;64.10;100917.50;7362564;19;20038;-61
2023/06/13 05:25:00;;;;;;;14.18;7.22;;;;;;;19.15;64.23;100914.41;7362656;19;20724;-61
2023/06/13 05:27:27;;;;;;;10.10;6.20;;;;;;;19.14;64.36;100923.47;7363586;19;20020;-61
2023/06/13 05:29:54;;;;;;;10.85;6.10;;;;;;;19.13;64.48;100918.31;7362905;19;20018;-61
2023/06/13 05:32:21;;;;;;;12.45;6.07;;;;;;;19.13;65.32;100918.31;7358749;19;20025;-61
2023/06/13 05:34:49;;;;;;;8.52;6.28;;;;;;;19.15;64.72;100922.41;7359520;19;20025;-61
2023/06/13 05:37:16;;;;;;;13.82;6.95;;;;;;;19.19;64.78;100917.50;7361184;19;20013;-62
2023/06/13 05:39:43;;;;;;;9.52;5.93;;;;;;;19.23;64.67;100922.22;7359275;19;21877;-61
2023/06/13 05:42:10;;;;;;;10.68;6.65;;;;;;;19.29;64.13;100919.75;7361791;19;20010;-61
2023/06/13 05:44:37;;;;;;;12.40;7.07;;;;;;;19.28;64.69;100926.94;7363246;19;20097;-61
2023/06/13 05:47:04;;;;;;;11.63;6.43;;;;;;;19.32;64.55;100920.16;7359709;19;20018;-62
2023/06/13 05:49:31;;;;;;;12.90;6.43;;;;;;;19.35;64.93;100925.06;7360015;19;20015;-62
2023/06/13 05:51:58;;;;;;;10.48;6.10;;;;;;;19.41;64.67;100921.56;7362298;19;20014;-62
2023/06/13 05:54:25;;;;;;;12.23;6.50;;;;;;;19.40;64.99;100930.59;7361153;19;20037;-62
2023/06/13 05:56:52;;;;;;;13.07;6.10;;;;;;;19.45;64.77;100933.53;7362444;19;20098;-61
2023/06/13 05:59:22;;;;;;;12.02;6.28;;;;;;;19.53;64.70;100922.59;7361401;19;20045;-60
2023/06/13 06:01:50;;;;;;;14.38;5.95;;;;;;;19.70;64.18;100925.66;7361059;19;20021;-63
2023/06/13 06:04:17;;;;;;;11.65;7.07;;;;;;;19.81;63.98;100922.31;7361609;19;20078;-62
2023/06/13 06:06:45;;;;;;;13.23;6.95;;;;;;;19.92;63.82;100937.69;7360063;19;20011;-62
2023/06/13 06:09:11;;;;;;;11.90;6.47;;;;;;;20.00;63.90;100931.28;7361906;19;20541;-62
2023/06/13 06:11:39;;;;;;;12.80;6.63;;;;;;;20.22;63.01;100931.78;7361165;19;20019;-62
2023/06/13 06:14:06;;;;;;;11.68;6.75;;;;;;;20.43;62.05;100934.19;7357067;19;20855;-62
2023/06/13 06:16:33;;;;;;;12.00;6.90;;;;;;;20.36;62.31;100928.88;7360961;19;20015;-63
2023/06/13 06:19:00;;;;;;;14.57;6.80;;;;;;;20.14;62.92;100922.19;7356529;19;22331;-61
2023/06/13 06:21:28;;;;;;;13.15;7.03;;;;;;;20.07;63.13;100924.06;7361087;19;20018;-62
2023/06/13 06:23:57;;;;;;;12.00;7.25;;;;;;;20.00;63.77;100921.44;7359993;19;20101;-62
2023/06/13 06:26:24;;;;;;;13.70;6.45;;;;;;;19.99;64.00;100926.97;7360895;19;20030;-65
2023/06/13 06:28:52;;;;;;;12.95;7.10;;;;;;;20.01;63.66;100923.03;7357703;19;20976;-63
2023/06/13 06:31:19;;;;;;;13.23;6.55;;;;;;;20.18;63.27;100920.72;7354775;19;20011;-61
2023/06/13 06:33:46;;;;;;;11.30;6.45;;;;;;;20.41;62.61;100923.72;7357363;19;20034;-62
2023/06/13 06:36:14;;;;;;;10.57;6.60;;;;;;;20.51;62.99;100912.56;7360929;19;20018;-62
2023/06/13 06:38:42;;;;;;;13.75;6.55;;;;;;;20.54;62.47;100917.47;7359365;19;20093;-65
2023/06/13 06:41:09;;;;;;;10.73;6.35;;;;;;;20.63;62.36;100913.47;7361216;19;20018;-61
2023/06/13 06:43:36;;;;;;;13.82;6.75;;;;;;;20.72;62.07;100914.88;7358708;19;20018;-61
2023/06/13 06:46:03;;;;;;;12.98;6.57;;;;;;;20.83;61.84;100919.50;7359418;19;20015;-62
2023/06/13 06:48:32;;;;;;;14.52;6.50;;;;;;;20.81;61.49;100905.53;7357086;19;20353;-63
2023/06/13 06:50:59;;;;;;;12.05;6.47;;;;;;;20.75;62.70;100911.75;7357162;19;20019;-63
2023/06/13 06:53:26;;;;;;;14.85;6.95;;;;;;;20.56;62.74;100915.41;7360750;19;20022;-62
2023/06/13 06:55:53;;;;;;;18.42;6.90;;;;;;;20.52;63.10;100913.38;7361044;19;21213;-63
2023/06/13 06:58:21;;;;;;;14.05;7.10;;;;;;;20.51;64.29;100911.72;7365792;19;20036;-64
2023/06/13 07:00:48;;;;;;;13.73;7.68;;;;;;;20.48;63.71;100908.44;7369276;19;20020;-62
2023/06/13 07:03:15;;;;;;;15.80;7.05;;;;;;;20.47;64.90;100914.00;7366179;19;20013;-65
2023/06/13 07:05:50;;;;;;;15.00;7.35;;;;;;;20.47;64.53;100911.31;7348872;19;20061;-65
2023/06/13 07:08:19;;;;;;;13.65;6.93;;;;;;;20.44;64.84;100909.91;7352162;19;20018;-64
2023/06/13 07:10:46;;;;;;;16.70;7.82;;;;;;;20.43;64.56;100908.25;7364414;19;20520;-61
2023/06/13 07:13:14;;;;;;;10.52;6.53;;;;;;;20.52;65.24;100924.06;7363734;19;20063;-61
2023/06/13 07:15:42;;;;;;;12.77;7.10;;;;;;;20.57;64.76;100913.53;7361751;19;20083;-62
2023/06/13 07:18:09;;;;;;;14.90;7.43;;;;;;;20.61;64.98;100920.09;7357640;19;20018;-62
2023/06/13 07:20:36;;;;;;;18.73;7.10;;;;;;;20.64;65.17;100922.31;7359746;19;20022;-63
2023/06/13 07:23:03;;;;;;;20.70;7.82;;;;;;;20.68;64.83;100921.66;7361542;19;20025;-65
2023/06/13 07:25:43;;;;;;;14.80;7.35;;;;;;;20.70;64.99;100919.63;7364516;19;20031;-62
2023/06/13 07:28:10;;;;;;;11.38;7.03;;;;;;;20.79;65.14;100909.44;7365891;19;20018;-63
2023/06/13 07:30:38;;;;;;;16.70;7.40;;;;;;;20.96;64.73;100918.59;7363506;19;21099;-64
2023/06/13 07:33:05;;;;;;;18.13;8.35;;;;;;;21.05;64.62;100919.94;7361334;19;20014;-62
2023/06/13 07:35:41;;;;;;;17.17;8.05;;;;;;;21.25;64.31;100923.28;7361334;19;20577;-63
2023/06/13 07:38:13;;;;;;;18.58;8.52;;;;;;;21.45;63.88;100922.28;7360609;19;20022;-62
2023/06/13 07:40:40;;;;;;;16.92;7.50;;;;;;;22.00;62.15;100926.63;7355558;19;20089;-62
2023/06/13 07:43:07;;;;;;;15.90;8.05;;;;;;;23.11;59.76;100922.56;7361862;19;20022;-62
2023/06/13 07:45:40;;;;;;;12.70;6.05;;;;;;;24.86;55.71;100928.25;7364061;19;20089;-61
2023/06/13 07:48:07;;;;;;;15.30;7.03;;;;;;;25.82;51.17;100935.91;7360996;19;20387;-62
2023/06/13 07:50:38;;;;;;;12.70;6.68;;;;;;;25.83;50.26;100931.34;7360757;19;20022;-62
2023/06/13 07:53:05;;;;;;;15.27;7.82;;;;;;;25.05;52.27;100929.66;7365944;19;20022;-63
2023/06/13 07:55:46;;;;;;;13.98;7.68;;;;;;;24.57;53.84;100924.81;7363208;19;20029;-62
2023/06/13 07:58:16;;;;;;;11.95;6.60;;;;;;;24.34;54.78;100931.13;7362683;19;20097;-62
2023/06/13 08:00:43;;;;;;;13.25;7.28;;;;;;;24.01;55.81;100931.00;7363030;19;20010;-62
2023/06/13 08:03:10;;;;;;;16.77;8.43;;;;;;;23.72;56.06;100932.81;7364218;19;20021;-62
2023/06/13 08:05:38;;;;;;;14.07;7.75;;;;;;;23.60;56.68;100940.06;7362703;19;20019;-63
2023/06/13 08:08:05;;;;;;;13.77;8.43;;;;;;;23.31;57.57;100941.81;7362148;19;20025;-62
2023/06/13 08:10:32;;;;;;;14.25;8.07;;;;;;;23.15;58.13;100939.81;7364997;19;20018;-62
2023/06/13 08:13:00;;;;;;;15.55;7.80;;;;;;;23.01;59.22;100937.34;7364574;19;20035;-63
2023/06/13 08:15:29;;;;;;;14.77;7.70;;;;;;;22.99;58.58;100934.09;7363208;19;20017;-63
2023/06/13 08:18:07;;;;;;;14.10;7.85;;;;;;;22.72;59.42;100932.03;7363616;19;20011;-62
2023/06/13 08:20:36;;;;;;;14.20;8.38;;;;;;;23.01;59.27;100934.66;7362408;19;21050;-61
2023/06/13 08:23:03;;;;;;;15.90;8.10;;;;;;;23.03;59.39;100931.75;7366957;19;21043;-61
2023/06/13 08:25:30;;;;;;;17.45;7.35;;;;;;;23.03;59.35;100929.88;7364067;19;20444;-62
2023/06/13 08:28:11;;;;;;;15.27;7.63;;;;;;;23.19;58.95;100949.03;7366127;19;20341;-62
2023/06/13 08:30:38;;;;;;;19.02;9.05;;;;;;;23.94;56.33;100936.50;7361423;19;20022;-61
2023/06/13 08:33:08;;;;;;;19.08;7.43;;;;;;;24.09;56.50;100931.41;7362567;19;20021;-61
2023/06/13 08:35:41;;;;;;;14.02;7.70;;;;;;;24.57;54.91;100935.56;7361037;19;20138;-63
2023/06/13 08:38:08;;;;;;;14.00;8.32;;;;;;;24.86;54.27;100941.72;7364959;19;20020;-62
2023/06/13 08:40:35;;;;;;;13.38;7.75;;;;;;;24.70;53.55;100940.63;7359927;19;20010;-62
2023/06/13 08:43:03;;;;;;;15.32;7.78;;;;;;;24.43;54.59;100921.59;7365170;19;20130;-61
2023/06/13 08:45:43;;;;;;;16.33;8.35;;;;;;;24.42;55.47;100932.59;7362333;19;20094;-61
2023/06/13 08:48:11;;;;;;;14.77;7.47;;;;;;;24.29;55.11;100923.75;7359956;19;20023;-62
2023/06/13 08:50:38;;;;;;;14.32;7.07;;;;;;;24.26;56.21;100920.75;7362896;19;20015;-61
2023/06/13 08:53:06;;;;;;;13.20;7.53;;;;;;;24.22;55.52;100923.13;7361640;19;20010;-63
2023/06/13 08:55:40;;;;;;;14.68;7.43;;;;;;;24.15;55.69;100922.41;7364066;19;20011;-62
2023/06/13 08:58:33;;;;;;;16.67;7.18;;;;;;;24.01;55.74;100910.28;7364047;19;20017;-61
2023/06/13 09:01:02;;;;;;;17.55;7.82;;;;;;;24.00;56.54;100918.59;7359997;19;20030;-62
2023/06/13 09:03:30;;;;;;;15.20;8.13;;;;;;;23.86;56.01;100912.69;7363183;19;20425;-61
2023/06/13 09:06:00;;;;;;;13.82;7.70;;;;;;;23.84;56.84;100912.09;7360842;19;20010;-62
2023/06/13 09:08:28;;;;;;;13.70;6.47;;;;;;;24.08;57.93;100915.50;7362784;19;20106;-64
2023/06/13 09:10:59;;;;;;;14.88;7.40;;;;;;;24.47;55.66;100917.38;7362685;19;20449;-61
2023/06/13 09:13:28;;;;;;;13.65;7.47;;;;;;;24.53;54.17;100919.06;7362506;19;20022;-62
2023/06/13 09:15:55;;;;;;;17.30;8.52;;;;;;;24.39;54.67;100912.38;7358304;19;20026;-62
2023/06/13 09:18:23;;;;;;;13.13;7.15;;;;;;;24.28;54.81;100907.84;7360465;19;20018;-62
2023/06/13 09:20:50;;;;;;;15.05;7.40;;;;;;;24.23;54.94;100913.16;7360865;19;20018;-61
2023/06/13 09:23:17;;;;;;;12.60;7.50;;;;;;;24.19;55.34;100912.81;7362869;19;20010;-61
2023/06/13 09:25:46;;;;;;;10.65;6.70;;;;;;;24.13;55.91;100907.53;7360000;19;20011;-61
2023/06/13 09:28:36;;;;;;;15.00;7.55;;;;;;;24.17;55.74;100917.63;7362526;19;20026;-61
2023/06/13 09:31:03;;;;;;;15.00;7.15;;;;;;;24.17;55.97;100914.94;7360755;19;20943;-61
2023/06/13 09:33:30;;;;;;;12.13;6.72;;;;;;;24.12;56.40;100912.13;7361492;19;20613;-62
2023/06/13 09:35:57;;;;;;;19.25;8.63;;;;;;;24.11;57.18;100915.88;7361122;19;20019;-62
2023/06/13 09:38:29;;;;;;;13.77;7.00;;;;;;;24.19;57.25;100906.63;7360983;19;20022;-61
2023/06/13 09:40:57;;;;;;;15.40;6.32;;;;;;;24.32;57.06;100906.34;7361449;19;20085;-62
2023/06/13 09:43:24;;;;;;;11.82;6.10;;;;;;;24.46;56.59;100904.16;7361911;19;20010;-62
2023/06/13 09:45:52;;;;;;;13.98;6.43;;;;;;;24.56;56.30;100910.53;7361433;19;20026;-62
2023/06/13 09:48:20;;;;;;;12.45;6.78;;;;;;;24.65;53.38;100910.94;7359363;19;20022;-62
2023/06/13 09:50:48;;;;;;;12.25;6.75;;;;;;;24.62;53.97;100900.66;7360860;19;20028;-62
2023/06/13 09:53:16;;;;;;;14.18;6.30;;;;;;;24.68;54.66;100899.72;7360421;19;20010;-61
2023/06/13 09:55:49;;;;;;;14.25;6.82;;;;;;;24.70;54.66;100897.56;7364218;19;20105;-61
2023/06/13 09:58:15;;;;;;;;;;;;;;;24.63;54.55;100902.31;7364381;19;20014;-62
2023/06/13 10:00:59;;;;;;;13.23;6.53;;;;;;;24.68;54.16;100905.09;7362647;19;19922;-62
2023/06/13 10:03:30;;;;;;;10.00;6.32;;;;;;;24.73;54.78;100902.47;7359393;19;21284;-61
2023/06/13 10:05:58;;;;;;;15.80;6.43;;;;;;;24.82;55.21;100905.56;7360081;19;20029;-61
2023/06/13 10:08:26;;;;;;;12.02;6.28;;;;;;;24.95;53.38;100914.16;7361914;19;20041;-61
2023/06/13 10:10:54;;;;;;;12.48;5.03;;;;;;;25.09;53.10;100901.19;7360635;19;20018;-62
2023/06/13 10:13:26;;;;;;;10.25;5.80;;;;;;;25.23;52.61;100912.44;7361203;19;20093;-63
2023/06/13 10:15:59;;;;;;;10.75;5.95;;;;;;;25.33;51.83;100902.63;7359389;19;20348;-60
2023/06/13 10:18:35;;;;;;;14.00;6.15;;;;;;;25.41;51.74;100912.97;7360928;19;20398;-61
2023/06/13 10:21:04;;;;;;;8.57;5.60;;;;;;;25.51;52.27;100914.97;7357303;19;20019;-60
2023/06/13 10:23:36;;;;;;;11.00;5.68;;;;;;;25.50;52.54;100910.66;7361372;19;20011;-62
2023/06/13 10:26:08;;;;;;;9.38;5.85;;;;;;;25.58;51.91;100910.25;7361086;19;20021;-61
2023/06/13 10:28:51;;;;;;;11.32;5.57;;;;;;;25.68;51.72;100904.19;7361733;19;20691;-62
2023/06/13 10:31:53;;;;;;;8.50;5.28;;;;;;;25.75;50.87;100919.09;7358294;19;20483;-61
2023/06/13 10:34:34;;;;;;;15.88;5.63;;;;;;;25.83;50.38;100905.19;7365763;19;21635;-62
2023/06/13 10:37:26;;;;;;;11.40;5.38;;;;;;;25.93;50.03;100907.19;7367162;19;20026;-63
2023/06/13 10:40:05;;;;;;;13.17;5.53;;;;;;;26.08;49.01;100899.25;7369360;19;20455;-63
2023/06/13 10:42:48;;;;;;;8.55;5.15;;;;;;;26.14;48.95;100903.66;7366108;19;20502;-62
2023/06/13 10:45:21;;;;;;;10.93;4.97;;;;;;;26.25;48.42;100893.81;7366198;19;20029;-63
2023/06/13 10:47:48;;;;;;;10.75;4.70;;;;;;;26.46;45.90;100900.22;7362867;19;20014;-61
2023/06/13 10:50:16;;;;;;;10.65;5.53;;;;;;;26.51;44.62;100901.09;7362905;19;20603;-61
2023/06/13 10:52:46;;;;;;;10.07;4.45;;;;;;;26.63;43.11;100903.59;7367978;19;20124;-62
2023/06/13 10:55:25;;;;;;;8.27;4.20;;;;;;;26.64;43.38;100892.56;7364572;19;21790;-62
2023/06/13 10:57:56;;;;;;;10.95;4.85;;;;;;;26.73;42.59;100896.41;7364694;19;20094;-61
2023/06/13 11:00:28;;;;;;;8.68;4.82;;;;;;;26.82;42.68;100885.91;7366540;19;20082;-61
2023/06/13 11:03:06;;;;;;;7.50;4.22;;;;;;;26.90;42.48;100888.19;7364798;19;20039;-61
2023/06/13 11:05:46;;;;;;;8.75;4.15;;;;;;;26.90;42.17;100890.91;7365955;19;20650;-62
2023/06/13 11:08:21;;;;;;;9.70;4.57;;;;;;;26.88;42.58;100887.63;7365044;19;20127;-61
2023/06/13 11:10:50;;;;;;;6.90;4.40;;;;;;;26.95;42.89;100882.81;7362577;19;20698;-62
2023/06/13 11:13:25;;;;;;;10.00;4.28;;;;;;;27.03;42.24;100903.13;7367358;19;20022;-62
2023/06/13 11:15:55;;;;;;;6.72;3.90;;;;;;;27.14;40.63;100889.44;7361205;19;20011;-62
2023/06/13 11:18:23;;;;;;;6.35;3.92;;;;;;;27.26;40.62;100893.84;7362751;19;19999;-62
2023/06/13 11:20:58;;;;;;;13.70;4.20;;;;;;;27.29;38.53;100899.53;7364380;19;21789;-62
2023/06/13 11:23:43;;;;;;;9.48;3.88;;;;;;;27.33;38.96;100895.22;7367568;19;20057;-62
2023/06/13 11:26:11;;;;;;;7.68;4.18;;;;;;;27.39;39.20;100901.47;7364711;19;20019;-62
2023/06/13 11:28:38;;;;;;;8.00;4.32;;;;;;;27.44;39.57;100899.59;7365005;19;20025;-61
2023/06/13 11:31:06;;;;;;;12.80;3.60;;;;;;;27.56;35.86;100897.53;7367199;19;20074;-61
2023/06/13 11:33:39;;;;;;;6.90;3.88;;;;;;;27.57;34.91;100893.75;7366597;19;20969;-62
2023/06/13 11:36:06;;;;;;;8.68;4.22;;;;;;;27.60;35.00;100898.63;7361652;19;20047;-63